X  Schließen METAR Luftfahrt Wetterdaten     EDTY Adolf Würth Airport
Temperatur
10°C Temperatur
9°C Taupunkt
94% Feuchtigkeit



Wind
2 KM/S
1 MPS
0 M/S
1 KTS



Kein Wind
N
Aktuelle Wetterlage

Teilweise bewölkt Teilweise bewölkt
Luftdruck 1011.85 (hPa) - 29.88 (inHg)
Sichtweite 6 (Meile) - 9.7 (Km)
Flughafen
Flughafen Code EDTY

Position : Adolf Würth Airport
Entfernung: 59 (Km)

Metar:
EDTY 160120Z AUTO VRB01KT 9999 // FEW090/// BKN110/// 10/09 Q1012

Zeit: 16-06-2024 03:20 CEST